Time;durP1;ratioP1;P1;durP2;ratioP2;P2;SDS_P1;SDS_P2;PMS_P1;PMS_P2;Temp;Humidity;BMP_temperature;BMP_pressure;BME280_temperature;BME280_humidity;BME280_pressure;Samples;Min_cycle;Max_cycle;Signal;HPM_P1;HPM_P2
2021/11/14 00:01:13;;;;;;;123.07;75.00;;;8.50;99.90;;;;;;5039315;28;20375;-47
2021/11/14 00:03:40;;;;;;;132.70;76.32;;;8.50;99.90;;;;;;5043009;28;20029;-48
2021/11/14 00:06:07;;;;;;;120.28;75.25;;;8.40;99.90;;;;;;5035099;28;20555;-48
2021/11/14 00:08:33;;;;;;;122.22;72.90;;;8.40;99.90;;;;;;5037849;28;20020;-48
2021/11/14 00:11:03;;;;;;;120.03;72.88;;;8.40;99.90;;;;;;5041640;28;20018;-48
2021/11/14 00:13:30;;;;;;;116.80;71.97;;;8.40;99.90;;;;;;5042176;28;20037;-48
2021/11/14 00:15:56;;;;;;;129.57;77.28;;;8.40;99.90;;;;;;4985323;28;20484;-48
2021/11/14 00:18:22;;;;;;;131.77;78.50;;;8.40;99.90;;;;;;5072778;28;20389;-48
2021/11/14 00:20:48;;;;;;;127.32;78.05;;;8.30;99.90;;;;;;5072462;28;20056;-48
2021/11/14 00:23:14;;;;;;;123.55;74.93;;;8.30;99.90;;;;;;5066817;28;20033;-48
2021/11/14 00:25:40;;;;;;;127.75;77.57;;;8.40;99.90;;;;;;5052455;28;20077;-47
2021/11/14 00:28:09;;;;;;;125.45;76.30;;;8.30;99.90;;;;;;5000908;28;20119;-47
2021/11/14 00:30:36;;;;;;;122.63;75.45;;;8.30;99.90;;;;;;5052574;28;20028;-48
2021/11/14 00:33:02;;;;;;;120.25;73.00;;;8.10;99.90;;;;;;5017290;28;20040;-48
2021/11/14 00:35:29;;;;;;;120.72;74.20;;;8.10;99.90;;;;;;5052828;28;20093;-48
2021/11/14 00:37:55;;;;;;;117.78;69.43;;;7.90;99.90;;;;;;5052656;28;20033;-48
2021/11/14 00:40:29;;;;;;;114.03;73.03;;;7.70;99.90;;;;;;5050970;28;20106;-49
2021/11/14 00:42:56;;;;;;;106.35;68.68;;;7.80;99.90;;;;;;5013247;28;20183;-49
2021/11/14 00:45:24;;;;;;;105.03;66.65;;;7.70;99.90;;;;;;5032398;28;20033;-48
2021/11/14 00:47:50;;;;;;;106.93;65.80;;;7.70;99.90;;;;;;5036361;28;20028;-48
2021/11/14 00:50:16;;;;;;;99.28;64.97;;;7.70;99.90;;;;;;5048948;28;20029;-48
2021/11/14 00:52:43;;;;;;;101.88;65.07;;;7.70;99.90;;;;;;5016987;28;20037;-48
2021/11/14 00:55:12;;;;;;;104.05;65.85;;;7.90;99.90;;;;;;5010235;28;20125;-48
2021/11/14 00:57:38;;;;;;;104.90;64.65;;;8.00;99.90;;;;;;4993801;28;20476;-48
2021/11/14 01:00:11;;;;;;;103.10;66.75;;;8.10;99.90;;;;;;4972149;28;20049;-48
2021/11/14 01:02:38;;;;;;;99.35;65.95;;;8.20;99.90;;;;;;4999987;28;20023;-48
2021/11/14 01:05:06;;;;;;;106.20;66.32;;;8.40;99.90;;;;;;4993564;28;20530;-47
2021/11/14 01:07:31;;;;;;;106.22;69.55;;;8.50;99.90;;;;;;4990475;28;20478;-48
2021/11/14 01:09:57;;;;;;;105.32;70.82;;;8.60;99.90;;;;;;4974130;28;20042;-48
2021/11/14 01:12:23;;;;;;;103.82;68.00;;;8.50;99.90;;;;;;4990547;28;20034;-48
2021/11/14 01:14:48;;;;;;;105.97;70.45;;;8.60;99.90;;;;;;4990454;28;20057;-47
2021/11/14 01:17:16;;;;;;;102.72;68.65;;;8.70;99.90;;;;;;4926193;28;20030;-48
2021/11/14 01:19:42;;;;;;;102.03;68.38;;;8.80;99.90;;;;;;4984148;28;20118;-47
2021/11/14 01:22:08;;;;;;;102.88;67.70;;;8.90;99.90;;;;;;4971104;28;20127;-48
2021/11/14 01:24:34;;;;;;;114.30;73.30;;;8.80;99.90;;;;;;4922976;28;20551;-48
2021/11/14 01:27:00;;;;;;;103.28;70.10;;;8.60;99.90;;;;;;4987542;28;20073;-47
2021/11/14 01:29:26;;;;;;;109.70;71.13;;;8.60;99.90;;;;;;4990559;28;20049;-48
2021/11/14 01:31:51;;;;;;;108.53;73.00;;;8.70;99.90;;;;;;4988007;28;20498;-48
2021/11/14 01:34:17;;;;;;;113.20;73.57;;;8.80;99.90;;;;;;4990221;28;20109;-48
2021/11/14 01:36:43;;;;;;;116.18;72.25;;;8.90;99.90;;;;;;4990403;28;20037;-48
2021/11/14 01:39:09;;;;;;;126.43;78.60;;;9.00;99.90;;;;;;4964425;28;20128;-48
2021/11/14 01:41:35;;;;;;;116.00;73.15;;;9.00;99.90;;;;;;4997097;28;20455;-48
2021/11/14 01:44:03;;;;;;;106.25;71.50;;;9.00;99.90;;;;;;5031839;28;20061;-48
2021/11/14 01:46:29;;;;;;;107.10;68.40;;;9.10;99.90;;;;;;5013399;28;20033;-48
2021/11/14 01:48:56;;;;;;;137.70;85.95;;;9.10;99.90;;;;;;5030530;28;20083;-48
2021/11/14 01:51:22;;;;;;;130.77;80.32;;;9.00;99.90;;;;;;5031858;28;20385;-48
2021/11/14 01:53:49;;;;;;;127.40;80.40;;;8.90;99.90;;;;;;5031649;28;20041;-48
2021/11/14 01:56:17;;;;;;;131.27;79.88;;;8.80;99.90;;;;;;5034682;28;20023;-48
2021/11/14 01:58:44;;;;;;;141.00;82.32;;;8.80;99.90;;;;;;5035313;28;20033;-48
2021/11/14 02:01:24;;;;;;;129.93;79.53;;;8.80;99.90;;;;;;5035389;28;20036;-48
2021/11/14 02:03:53;;;;;;;136.98;82.07;;;8.80;99.90;;;;;;5016946;28;20070;-48
2021/11/14 02:06:21;;;;;;;141.95;84.63;;;8.80;99.90;;;;;;5016695;28;20042;-48
2021/11/14 02:08:47;;;;;;;139.32;83.82;;;8.80;99.90;;;;;;5000375;28;20037;-47
2021/11/14 02:11:16;;;;;;;148.93;86.03;;;8.70;99.90;;;;;;5016625;28;20037;-48
2021/11/14 02:13:44;;;;;;;103.18;67.55;;;8.80;99.90;;;;;;5035221;28;20045;-48
2021/11/14 02:16:12;;;;;;;109.65;67.18;;;8.80;99.90;;;;;;5035211;28;20508;-48
2021/11/14 02:18:38;;;;;;;98.40;65.88;;;8.80;99.90;;;;;;5000040;28;20120;-48
2021/11/14 02:21:04;;;;;;;108.90;68.78;;;8.80;99.90;;;;;;5034741;28;20124;-49
2021/11/14 02:23:30;;;;;;;115.00;72.78;;;8.80;99.90;;;;;;5035001;28;20358;-48
2021/11/14 02:25:56;;;;;;;110.07;71.20;;;8.80;99.90;;;;;;5035092;28;20477;-48
2021/11/14 02:28:24;;;;;;;110.53;72.65;;;8.80;99.90;;;;;;5016385;28;20124;-48
2021/11/14 02:30:52;;;;;;;107.70;72.28;;;8.80;99.90;;;;;;5035022;28;20057;-47
2021/11/14 02:33:19;;;;;;;102.25;67.03;;;8.70;99.90;;;;;;5034714;28;20052;-47
2021/11/14 02:35:49;;;;;;;109.63;66.82;;;8.70;99.90;;;;;;5035184;28;20036;-48
2021/11/14 02:38:17;;;;;;;105.50;67.28;;;8.70;99.90;;;;;;4999827;28;20043;-48
2021/11/14 02:40:44;;;;;;;99.00;66.72;;;8.60;99.90;;;;;;5034558;28;20029;-48
2021/11/14 02:43:11;;;;;;;97.85;66.13;;;8.60;99.90;;;;;;5034864;28;20025;-48
2021/11/14 02:45:38;;;;;;;101.38;64.47;;;8.70;99.90;;;;;;5035328;28;20033;-48
2021/11/14 02:48:06;;;;;;;101.25;66.88;;;8.60;99.90;;;;;;4984398;28;20071;-48
2021/11/14 02:50:33;;;;;;;98.40;64.90;;;8.70;99.90;;;;;;4984372;28;20045;-48
2021/11/14 02:52:59;;;;;;;101.60;66.40;;;8.70;99.90;;;;;;5034785;28;20535;-48
2021/11/14 02:55:26;;;;;;;98.15;63.35;;;8.70;99.90;;;;;;5034285;28;20345;-48
2021/11/14 02:57:53;;;;;;;97.13;62.20;;;8.70;99.90;;;;;;4999584;28;20489;-48
2021/11/14 03:00:27;;;;;;;103.30;64.38;;;8.60;99.90;;;;;;5034186;28;20029;-48
2021/11/14 03:02:53;;;;;;;108.75;67.03;;;8.60;99.90;;;;;;4956778;28;20066;-48
2021/11/14 03:05:20;;;;;;;125.15;81.97;;;8.50;99.90;;;;;;4973038;28;20035;-48
2021/11/14 03:07:47;;;;;;;147.30;92.00;;;8.50;99.90;;;;;;4955919;28;20390;-48
2021/11/14 03:10:17;;;;;;;122.90;81.20;;;8.30;99.90;;;;;;4956856;28;20078;-48
2021/11/14 03:12:56;;;;;;;125.47;80.95;;;8.40;99.90;;;;;;4973070;28;20043;-48
2021/11/14 03:15:23;;;;;;;114.75;76.75;;;8.50;99.90;;;;;;4972871;28;20034;-48
2021/11/14 03:17:49;;;;;;;116.55;77.63;;;8.50;99.90;;;;;;4972959;28;20043;-48
2021/11/14 03:20:15;;;;;;;106.10;72.03;;;8.40;99.90;;;;;;4983403;28;20050;-48
2021/11/14 03:22:41;;;;;;;117.50;76.20;;;8.30;99.90;;;;;;4992213;28;20112;-48
2021/11/14 03:25:07;;;;;;;108.78;70.70;;;8.40;99.90;;;;;;4959456;28;20059;-48
2021/11/14 03:27:33;;;;;;;106.85;70.95;;;8.40;99.90;;;;;;4975464;28;20482;-48
2021/11/14 03:29:59;;;;;;;104.63;67.57;;;8.30;99.90;;;;;;4992169;28;20041;-48
2021/11/14 03:32:25;;;;;;;114.63;74.20;;;8.30;99.90;;;;;;4991843;28;20512;-48
2021/11/14 03:34:50;;;;;;;114.35;72.45;;;8.30;99.90;;;;;;5028396;28;20111;-47
2021/11/14 03:37:20;;;;;;;100.30;66.80;;;8.20;99.90;;;;;;4981972;28;20117;-48
2021/11/14 03:39:47;;;;;;;106.97;66.75;;;8.30;99.90;;;;;;5033372;28;20112;-48
2021/11/14 03:42:14;;;;;;;97.35;64.03;;;8.30;99.90;;;;;;4982386;28;20037;-48
2021/11/14 03:44:40;;;;;;;104.80;65.68;;;8.30;99.90;;;;;;5033333;28;20049;-48
2021/11/14 03:47:09;;;;;;;94.93;62.08;;;8.30;99.90;;;;;;5033399;28;20029;-48
2021/11/14 03:49:34;;;;;;;100.82;62.42;;;8.20;99.90;;;;;;4999029;28;20052;-48
2021/11/14 03:52:01;;;;;;;117.15;73.63;;;8.20;99.90;;;;;;5033511;28;20029;-48
2021/11/14 03:54:26;;;;;;;160.40;103.47;;;8.10;99.90;;;;;;5014552;28;20041;-48
2021/11/14 03:56:52;;;;;;;148.05;89.10;;;8.00;99.90;;;;;;5033158;28;20041;-48
2021/11/14 03:59:18;;;;;;;145.13;92.93;;;8.10;99.90;;;;;;5033442;28;20057;-47
2021/11/14 04:01:44;;;;;;;123.38;78.35;;;8.20;99.90;;;;;;4998366;28;20037;-48
2021/11/14 04:04:10;;;;;;;96.35;63.63;;;8.20;99.90;;;;;;5033102;28;20028;-48
2021/11/14 04:06:36;;;;;;;84.45;59.30;;;8.20;99.90;;;;;;4981821;28;20030;-47
2021/11/14 04:09:02;;;;;;;88.05;60.30;;;8.10;99.90;;;;;;4982055;28;20388;-48
2021/11/14 04:11:28;;;;;;;82.50;53.42;;;8.10;99.90;;;;;;5032970;28;20112;-48
2021/11/14 04:13:55;;;;;;;181.63;58.28;;;8.10;99.90;;;;;;5014173;28;20137;-48
2021/11/14 04:16:21;;;;;;;425.55;68.00;;;8.00;99.90;;;;;;5032942;28;20038;-48
2021/11/14 04:18:47;;;;;;;406.92;69.30;;;8.10;99.90;;;;;;5032825;28;20032;-49
2021/11/14 04:21:13;;;;;;;306.30;65.63;;;8.10;99.90;;;;;;5032649;28;20092;-48
2021/11/14 04:23:39;;;;;;;328.25;67.57;;;8.10;99.90;;;;;;5032980;28;20049;-48
2021/11/14 04:26:07;;;;;;;148.48;59.70;;;8.00;99.90;;;;;;5033105;28;20251;-48
2021/11/14 04:28:34;;;;;;;183.05;60.95;;;7.90;99.90;;;;;;5029840;28;20025;-48
2021/11/14 04:31:00;;;;;;;122.63;60.10;;;7.90;99.90;;;;;;5032978;28;20033;-48
2021/11/14 04:33:26;;;;;;;108.85;60.50;;;7.70;99.90;;;;;;5031950;28;21787;-48
2021/11/14 04:35:52;;;;;;;93.50;59.17;;;7.70;99.90;;;;;;4978285;28;20037;-48
2021/11/14 04:38:19;;;;;;;99.72;59.83;;;7.70;99.90;;;;;;5012916;28;20040;-48
2021/11/14 04:40:47;;;;;;;97.68;58.80;;;7.70;99.90;;;;;;5012936;28;20104;-48
2021/11/14 04:43:15;;;;;;;88.95;54.67;;;7.60;99.90;;;;;;5013271;28;20034;-48
2021/11/14 04:45:41;;;;;;;77.10;54.67;;;7.60;99.90;;;;;;5012236;28;20033;-48
2021/11/14 04:48:07;;;;;;;76.80;52.95;;;7.70;99.90;;;;;;4978212;28;20120;-48
2021/11/14 04:50:34;;;;;;;70.97;52.85;;;7.70;99.90;;;;;;5012924;28;20080;-48
2021/11/14 04:53:01;;;;;;;65.57;52.88;;;7.70;99.90;;;;;;5012669;28;20117;-47
2021/11/14 04:55:27;;;;;;;94.60;66.60;;;7.70;99.90;;;;;;5026380;28;20037;-48
2021/11/14 04:57:52;;;;;;;105.70;74.63;;;7.90;99.90;;;;;;5032251;28;20037;-48
2021/11/14 05:00:28;;;;;;;102.00;75.30;;;7.90;99.90;;;;;;5032716;28;20468;-48
2021/11/14 05:02:54;;;;;;;104.40;72.57;;;8.00;99.90;;;;;;5032293;28;20049;-48
2021/11/14 05:05:20;;;;;;;96.25;72.35;;;8.00;99.90;;;;;;5031273;28;20037;-48
2021/11/14 05:07:46;;;;;;;100.70;70.75;;;8.00;99.90;;;;;;5032286;28;20032;-48
2021/11/14 05:10:12;;;;;;;99.78;73.68;;;7.90;99.90;;;;;;5032301;28;20128;-48
2021/11/14 05:12:38;;;;;;;96.53;71.15;;;8.00;99.90;;;;;;5032238;28;20069;-48
2021/11/14 05:15:06;;;;;;;104.93;75.55;;;8.10;99.90;;;;;;5022177;28;20048;-48
2021/11/14 05:17:32;;;;;;;95.75;66.63;;;8.10;99.90;;;;;;4961853;28;20038;-48
2021/11/14 05:19:58;;;;;;;95.10;68.32;;;8.00;99.90;;;;;;4969908;28;20428;-47
2021/11/14 05:22:23;;;;;;;90.80;66.57;;;8.00;99.90;;;;;;5032060;28;20029;-48
2021/11/14 05:24:49;;;;;;;90.57;67.70;;;8.00;99.90;;;;;;5034622;28;20036;-49
2021/11/14 05:27:15;;;;;;;101.43;72.35;;;7.90;99.90;;;;;;5029977;28;20511;-48
2021/11/14 05:29:41;;;;;;;104.18;79.75;;;7.90;99.90;;;;;;5032653;28;20026;-48
2021/11/14 05:32:07;;;;;;;120.82;84.78;;;8.00;99.90;;;;;;5036355;28;20034;-48
2021/11/14 05:34:33;;;;;;;99.55;73.75;;;7.90;99.90;;;;;;5019574;28;20122;-48
2021/11/14 05:36:59;;;;;;;107.40;70.82;;;8.00;99.90;;;;;;5044545;28;20116;-47
2021/11/14 05:39:25;;;;;;;99.45;69.15;;;8.00;99.90;;;;;;5040837;28;20061;-48
2021/11/14 05:41:51;;;;;;;103.43;69.78;;;8.00;99.90;;;;;;4998316;28;20040;-48
2021/11/14 05:44:17;;;;;;;98.13;72.10;;;8.00;99.90;;;;;;5045540;28;20020;-48
2021/11/14 05:46:44;;;;;;;111.82;75.15;;;8.00;99.90;;;;;;5045296;28;20033;-48
2021/11/14 05:49:10;;;;;;;103.80;70.93;;;7.90;99.90;;;;;;4998859;28;20447;-48
2021/11/14 05:51:39;;;;;;;112.53;76.40;;;7.90;99.90;;;;;;5042846;28;20024;-47
2021/11/14 05:54:06;;;;;;;110.07;75.20;;;7.90;99.90;;;;;;5045325;28;20033;-48
2021/11/14 05:56:32;;;;;;;113.22;82.25;;;8.00;99.90;;;;;;5044420;28;20037;-48
2021/11/14 06:01:35;;;;;;;129.13;87.78;;;7.80;99.90;;;;;;5006002;28;20082;-48
2021/11/14 06:06:45;;;;;;;165.50;107.18;;;8.20;99.90;;;;;;5002966;28;20088;-48
2021/11/14 06:09:11;;;;;;;175.52;110.18;;;8.30;99.90;;;;;;4983874;28;20065;-48
2021/11/14 06:11:37;;;;;;;125.68;86.45;;;8.60;99.90;;;;;;4987460;28;20393;-48
2021/11/14 06:14:03;;;;;;;109.85;74.32;;;9.40;99.90;;;;;;4971047;28;20056;-48
2021/11/14 06:16:29;;;;;;;93.20;67.20;;;10.00;99.90;;;;;;5041495;28;20025;-47
2021/11/14 06:18:56;;;;;;;103.63;71.15;;;10.50;99.90;;;;;;5055502;28;20539;-48
2021/11/14 06:21:23;;;;;;;97.90;67.40;;;10.90;99.90;;;;;;5054371;28;20054;-48
2021/11/14 06:23:50;;;;;;;96.80;68.40;;;11.30;99.90;;;;;;5054892;28;20029;-48
2021/11/14 06:26:16;;;;;;;93.78;66.13;;;11.70;99.90;;;;;;5044843;28;20033;-47
2021/11/14 06:28:42;;;;;;;103.47;71.03;;;12.20;99.90;;;;;;4998723;28;20029;-48
2021/11/14 06:31:07;;;;;;;104.05;73.95;;;12.50;99.90;;;;;;5034699;28;20140;-48
2021/11/14 06:33:33;;;;;;;117.78;79.60;;;12.80;99.90;;;;;;4967540;28;20038;-48
2021/11/14 06:35:59;;;;;;;103.72;73.45;;;13.10;99.90;;;;;;5040626;28;20033;-47
2021/11/14 06:38:25;;;;;;;111.60;81.95;;;13.50;99.90;;;;;;5045190;28;20017;-48
2021/11/14 06:40:51;;;;;;;103.60;74.45;;;14.00;99.90;;;;;;4986102;28;20040;-48
2021/11/14 06:43:17;;;;;;;80.93;58.13;;;14.40;99.90;;;;;;5054482;28;20021;-47
2021/11/14 06:45:42;;;;;;;69.53;50.30;;;14.70;99.90;;;;;;5054600;28;20504;-47
2021/11/14 06:48:08;;;;;;;63.25;44.25;;;14.90;99.90;;;;;;4999612;28;20466;-48
2021/11/14 06:50:34;;;;;;;58.88;43.65;;;15.40;99.90;;;;;;5037201;28;20031;-47
2021/11/14 06:53:00;;;;;;;61.78;48.05;;;15.60;99.90;;;;;;5043071;28;20116;-47
2021/11/14 06:55:26;;;;;;;63.28;45.25;;;16.30;99.90;;;;;;5044619;28;20108;-47
2021/11/14 06:57:52;;;;;;;68.07;49.58;;;16.90;99.90;;;;;;5037369;28;20034;-47
2021/11/14 07:00:20;;;;;;;75.22;54.50;;;16.50;99.90;;;;;;5040380;28;20025;-50
2021/11/14 07:02:47;;;;;;;74.78;57.88;;;;;;;;;;5040947;28;20044;-50
2021/11/14 07:05:14;;;;;;;70.72;56.10;;;17.70;99.90;;;;;;5045344;28;20376;-49
2021/11/14 07:07:41;;;;;;;71.70;54.58;;;;;;;;;;5048740;28;20103;-50
2021/11/14 07:10:08;;;;;;;70.47;53.55;;;18.60;99.90;;;;;;5045268;28;20025;-53
2021/11/14 07:12:35;;;;;;;63.85;49.85;;;18.80;99.90;;;;;;5044711;28;20053;-48
2021/11/14 07:15:02;;;;;;;69.00;51.92;;;18.90;99.90;;;;;;5016778;28;20392;-46
2021/11/14 07:17:28;;;;;;;64.10;50.75;;;18.50;98.90;;;;;;5043645;28;20033;-49
2021/11/14 07:19:54;;;;;;;62.47;49.47;;;19.00;99.30;;;;;;4984278;28;20436;-49
2021/11/14 07:22:20;;;;;;;62.22;48.03;;;19.00;99.20;;;;;;5033325;28;20432;-49
2021/11/14 07:24:46;;;;;;;56.05;48.58;;;19.50;98.10;;;;;;5030963;28;20470;-48
2021/11/14 07:27:12;;;;;;;62.80;51.42;;;19.80;97.40;;;;;;5014907;28;20090;-48
2021/11/14 07:29:38;;;;;;;61.60;51.33;;;19.50;97.00;;;;;;5033705;28;20487;-47
2021/11/14 07:32:04;;;;;;;60.63;49.47;;;19.30;96.50;;;;;;5033644;28;20111;-48
2021/11/14 07:34:30;;;;;;;64.13;52.30;;;19.50;96.30;;;;;;5011368;28;20042;-48
2021/11/14 07:36:56;;;;;;;59.58;50.22;;;19.00;96.10;;;;;;5011684;28;20060;-48
2021/11/14 07:39:22;;;;;;;56.67;48.90;;;19.30;95.30;;;;;;5011658;28;20041;-48
2021/11/14 07:41:48;;;;;;;55.72;44.50;;;19.20;95.70;;;;;;5011582;28;20030;-48
2021/11/14 07:44:14;;;;;;;53.20;45.25;;;19.00;95.70;;;;;;5011529;28;20169;-48
2021/11/14 07:46:40;;;;;;;50.97;41.35;;;19.80;95.70;;;;;;5011445;28;20132;-48
2021/11/14 07:49:06;;;;;;;48.28;40.28;;;19.90;95.10;;;;;;5011467;28;20048;-46
2021/11/14 07:51:31;;;;;;;42.38;37.67;;;19.90;95.00;;;;;;4962756;28;20042;-48
2021/11/14 07:54:00;;;;;;;45.25;38.28;;;19.90;94.10;;;;;;5010775;28;20085;-48
2021/11/14 07:56:27;;;;;;;40.53;34.60;;;19.90;94.00;;;;;;5011258;28;20076;-49
2021/11/14 07:58:53;;;;;;;40.25;33.47;;;19.50;93.30;;;;;;5011353;28;20033;-48
2021/11/14 08:01:19;;;;;;;42.20;33.45;;;19.80;93.70;;;;;;4994760;28;20037;-48
2021/11/14 08:03:45;;;;;;;37.22;31.90;;;20.20;94.20;;;;;;5011204;28;20065;-48
2021/11/14 08:06:10;;;;;;;39.20;31.95;;;20.10;92.80;;;;;;5028431;28;20077;-48
2021/11/14 08:08:36;;;;;;;37.28;32.05;;;20.70;92.60;;;;;;4981718;28;20043;-48
2021/11/14 08:11:02;;;;;;;37.03;31.17;;;21.30;92.60;;;;;;5010981;28;20041;-48
2021/11/14 08:13:28;;;;;;;36.00;32.00;;;21.60;91.30;;;;;;4930052;28;20067;-49
2021/11/14 08:15:54;;;;;;;39.40;33.03;;;21.40;91.50;;;;;;4978394;28;20045;-48
2021/11/14 08:18:19;;;;;;;41.85;33.08;;;20.80;90.80;;;;;;5010926;28;20124;-48
2021/11/14 08:20:46;;;;;;;44.00;36.35;;;21.20;91.00;;;;;;4995824;28;20038;-48
2021/11/14 08:23:14;;;;;;;39.67;34.65;;;;;;;;;;4991173;28;20046;-48
2021/11/14 08:25:40;;;;;;;38.72;34.30;;;22.30;89.50;;;;;;4959387;28;20054;-48
2021/11/14 08:28:06;;;;;;;40.33;35.15;;;22.50;90.00;;;;;;4991169;28;20482;-48
2021/11/14 08:30:32;;;;;;;40.13;34.92;;;22.70;87.50;;;;;;4990934;28;20049;-48
2021/11/14 08:32:58;;;;;;;40.50;35.53;;;23.30;87.80;;;;;;4942818;28;20510;-48
2021/11/14 08:35:24;;;;;;;38.58;34.50;;;23.90;85.00;;;;;;4991020;28;20398;-48
2021/11/14 08:37:59;;;;;;;37.90;33.95;;;23.60;84.90;;;;;;4990960;28;20171;-48
2021/11/14 08:40:27;;;;;;;38.92;33.03;;;24.10;83.40;;;;;;4991057;28;20038;-48
2021/11/14 08:42:55;;;;;;;36.88;32.97;;;23.70;82.50;;;;;;5026827;28;20045;-48
2021/11/14 08:45:22;;;;;;;39.33;35.17;;;24.00;82.60;;;;;;5032889;28;20037;-48
2021/11/14 08:47:48;;;;;;;37.22;33.22;;;24.40;82.00;;;;;;5032220;28;20041;-48
2021/11/14 08:50:15;;;;;;;37.42;33.38;;;24.50;81.60;;;;;;4980656;28;20041;-48
2021/11/14 08:52:45;;;;;;;37.78;33.75;;;;;;;;;;5031432;28;20026;-48
2021/11/14 08:55:23;;;;;;;42.38;34.88;;;24.70;78.40;;;;;;5031435;28;20037;-48
2021/11/14 08:57:51;;;;;;;37.65;33.75;;;25.30;79.10;;;;;;5031327;28;20026;-48
2021/11/14 09:00:20;;;;;;;40.65;36.33;;;23.80;80.30;;;;;;5031477;28;20099;-48
2021/11/14 09:02:51;;;;;;;39.67;35.38;;;24.00;80.30;;;;;;5028642;28;20030;-48
2021/11/14 09:05:18;;;;;;;36.63;32.83;;;24.40;80.00;;;;;;4998042;28;20124;-48
2021/11/14 09:07:44;;;;;;;46.47;38.97;;;23.20;78.30;;;;;;5035503;28;20051;-49
2021/11/14 09:10:12;;;;;;;42.40;38.08;;;24.50;79.10;;;;;;5035654;28;20029;-49
2021/11/14 09:12:38;;;;;;;35.38;31.63;;;24.00;77.30;;;;;;5035289;28;20044;-48
2021/11/14 09:15:04;;;;;;;35.90;32.03;;;24.50;77.60;;;;;;5035332;28;20666;-48
2021/11/14 09:17:30;;;;;;;36.35;32.55;;;24.90;77.70;;;;;;4984136;28;20076;-49
2021/11/14 09:19:56;;;;;;;36.67;32.95;;;24.70;75.40;;;;;;4983664;28;20081;-48
2021/11/14 09:22:22;;;;;;;35.92;32.30;;;24.20;77.60;;;;;;4967468;28;20128;-48
2021/11/14 09:24:48;;;;;;;40.08;35.90;;;23.80;76.70;;;;;;5035090;28;20052;-48
2021/11/14 09:27:14;;;;;;;36.92;33.13;;;24.00;75.60;;;;;;5017513;28;20029;-48
2021/11/14 09:29:40;;;;;;;38.33;34.47;;;23.70;78.00;;;;;;5016279;28;20488;-48
2021/11/14 09:32:07;;;;;;;36.47;32.78;;;22.80;94.10;;;;;;5035152;28;20044;-47
2021/11/14 09:34:33;;;;;;;35.70;31.98;;;22.30;80.10;;;;;;5034985;28;20116;-48
2021/11/14 09:36:59;;;;;;;40.13;35.88;;;22.50;79.40;;;;;;5035041;28;20461;-48
2021/11/14 09:39:25;;;;;;;37.58;33.88;;;22.70;80.70;;;;;;5034677;28;20648;-48
2021/11/14 09:41:51;;;;;;;40.05;35.92;;;22.20;80.20;;;;;;5034758;28;20034;-48
2021/11/14 09:44:18;;;;;;;40.00;35.58;;;21.50;82.80;;;;;;5034889;28;20033;-48
2021/11/14 09:46:54;;;;;;;49.00;41.70;;;;;;;;;;5031733;28;20029;-48
2021/11/14 09:49:26;;;;;;;34.95;30.98;;;22.70;78.80;;;;;;4999578;28;20408;-48
2021/11/14 09:51:54;;;;;;;32.90;29.52;;;23.30;77.80;;;;;;4999587;28;20092;-47
2021/11/14 09:54:22;;;;;;;32.75;29.25;;;22.20;78.60;;;;;;5034610;28;20068;-47
2021/11/14 09:56:49;;;;;;;33.53;29.20;;;22.50;79.30;;;;;;5031453;28;20396;-48
2021/11/14 09:59:15;;;;;;;43.75;38.65;;;21.30;80.60;;;;;;4972524;28;20603;-49
2021/11/14 10:01:41;;;;;;;35.95;31.90;;;20.30;83.00;;;;;;4998819;28;20064;-48
2021/11/14 10:04:08;;;;;;;40.05;34.65;;;21.00;83.10;;;;;;5034868;28;20109;-48
2021/11/14 10:06:35;;;;;;;35.90;32.10;;;21.70;82.60;;;;;;5019401;28;20037;-48
2021/11/14 10:09:03;;;;;;;35.00;31.30;;;21.70;82.10;;;;;;5015355;28;20116;-48
2021/11/14 10:11:41;;;;;;;37.05;33.25;;;23.00;83.90;;;;;;5020395;28;20037;-48
2021/11/14 10:14:08;;;;;;;34.53;31.20;;;;;;;;;;5034981;28;20561;-47
2021/11/14 10:16:35;;;;;;;45.65;41.63;;;;;;;;;;5034062;28;20037;-48
2021/11/14 10:19:13;;;;;;;31.90;28.80;;;22.60;76.40;;;;;;5035493;28;20541;-48
2021/11/14 10:21:39;;;;;;;38.33;34.92;;;23.50;77.10;;;;;;5019988;28;20518;-48
2021/11/14 10:24:07;;;;;;;32.03;28.58;;;23.40;75.90;;;;;;5019833;28;20116;-47
2021/11/14 10:26:34;;;;;;;43.70;39.97;;;;;;;;;;5054997;28;20491;-47
2021/11/14 10:29:06;;;;;;;33.15;29.95;;;23.50;78.30;;;;;;5055099;28;20086;-48
2021/11/14 10:31:33;;;;;;;32.03;28.70;;;22.40;76.80;;;;;;5054916;28;20059;-47
2021/11/14 10:34:00;;;;;;;37.28;34.00;;;22.60;77.80;;;;;;5019420;28;20388;-48
2021/11/14 10:36:26;;;;;;;34.53;31.30;;;22.60;76.40;;;;;;5054692;28;20033;-47
2021/11/14 10:39:09;;;;;;;36.85;33.53;;;21.00;78.00;;;;;;5054576;28;20028;-48
2021/11/14 10:41:46;;;;;;;27.35;24.42;;;20.30;80.60;;;;;;4986983;28;20037;-47
2021/11/14 10:44:14;;;;;;;28.27;25.27;;;20.60;81.70;;;;;;5054522;28;20029;-48
2021/11/14 10:46:41;;;;;;;28.73;25.70;;;21.30;82.20;;;;;;5054522;28;20043;-47
2021/11/14 10:49:08;;;;;;;29.00;25.17;;;21.70;81.20;;;;;;5019234;28;20120;-47
2021/11/14 10:51:34;;;;;;;30.15;27.02;;;22.70;79.50;;;;;;5054583;28;20032;-47
2021/11/14 10:54:01;;;;;;;28.17;25.25;;;22.10;78.00;;;;;;5054353;28;20039;-48
2021/11/14 10:56:27;;;;;;;30.27;25.83;;;22.80;78.80;;;;;;5054330;28;20540;-48
2021/11/14 10:58:53;;;;;;;28.50;25.45;;;22.20;77.10;;;;;;4970554;28;20127;-47
2021/11/14 11:01:19;;;;;;;27.52;24.73;;;21.30;78.60;;;;;;5002848;28;20068;-48
2021/11/14 11:03:51;;;;;;;36.50;32.67;;;21.40;78.50;;;;;;5054230;28;20056;-47
2021/11/14 11:06:25;;;;;;;32.38;28.15;;;21.40;79.60;;;;;;4972946;28;20049;-48
2021/11/14 11:08:51;;;;;;;27.48;24.50;;;22.00;80.60;;;;;;4973072;28;20066;-47
2021/11/14 11:11:21;;;;;;;29.70;26.60;;;21.30;78.40;;;;;;4940810;28;20039;-48
2021/11/14 11:13:48;;;;;;;30.08;26.83;;;20.90;79.90;;;;;;4973088;28;20035;-48
2021/11/14 11:16:27;;;;;;;29.88;25.55;;;21.20;79.50;;;;;;4972940;28;20046;-47
2021/11/14 11:19:01;;;;;;;31.20;26.63;;;20.40;80.80;;;;;;4973065;28;20596;-48
2021/11/14 11:21:30;;;;;;;31.10;24.08;;;21.10;81.60;;;;;;4970785;28;20529;-47
2021/11/14 11:24:09;;;;;;;27.65;23.88;;;21.00;80.10;;;;;;4972882;28;20027;-47
2021/11/14 11:26:36;;;;;;;26.65;23.85;;;21.10;80.30;;;;;;4957153;28;20042;-47
2021/11/14 11:29:14;;;;;;;25.67;22.90;;;21.40;79.90;;;;;;4939821;28;20090;-48
2021/11/14 11:31:39;;;;;;;25.65;22.60;;;21.10;79.60;;;;;;4972831;28;20058;-48
2021/11/14 11:34:05;;;;;;;27.25;22.83;;;21.10;80.30;;;;;;4972593;28;20030;-48
2021/11/14 11:36:32;;;;;;;27.55;24.65;;;21.40;79.70;;;;;;4971938;28;20037;-48
2021/11/14 11:38:58;;;;;;;25.95;23.20;;;20.90;79.60;;;;;;5018693;28;20088;-48
2021/11/14 11:41:28;;;;;;;25.58;22.48;;;21.10;80.80;;;;;;5053847;28;20071;-48
2021/11/14 11:43:54;;;;;;;27.23;22.42;;;20.80;81.70;;;;;;5019714;28;20130;-48
2021/11/14 11:46:35;;;;;;;29.58;24.48;;;21.00;82.90;;;;;;5053861;28;20029;-47
2021/11/14 11:49:05;;;;;;;27.58;21.38;;;20.90;82.30;;;;;;5053332;28;20107;-48
2021/11/14 11:51:44;;;;;;;24.95;21.65;;;20.90;81.00;;;;;;5053345;28;20044;-48
2021/11/14 11:54:14;;;;;;;21.67;19.27;;;20.40;81.50;;;;;;5053352;28;20064;-48
2021/11/14 11:56:44;;;;;;;24.65;20.35;;;20.40;81.50;;;;;;5053676;28;20040;-48
2021/11/14 11:59:24;;;;;;;29.83;21.60;;;19.90;82.20;;;;;;5050396;28;20033;-48
2021/11/14 12:01:59;;;;;;;26.27;19.70;;;19.90;82.40;;;;;;5053219;28;20036;-47
2021/11/14 12:04:35;;;;;;;26.27;21.40;;;20.20;81.80;;;;;;5052530;28;20089;-48
2021/11/14 12:07:25;;;;;;;29.20;21.85;;;19.90;82.50;;;;;;5052980;28;20033;-48
2021/11/14 12:09:56;;;;;;;25.75;21.38;;;20.00;82.40;;;;;;5052980;28;20124;-47
2021/11/14 12:12:24;;;;;;;24.73;21.13;;;19.90;82.90;;;;;;5052932;28;20033;-47
2021/11/14 12:15:01;;;;;;;26.58;19.98;;;19.80;84.80;;;;;;5017643;28;20044;-47
2021/11/14 12:17:29;;;;;;;23.90;19.38;;;19.80;83.70;;;;;;5052769;28;20033;-47
2021/11/14 12:20:06;;;;;;;24.48;19.02;;;20.10;82.80;;;;;;5052639;28;20052;-48
2021/11/14 12:22:39;;;;;;;21.20;18.45;;;;;;;;;;5052847;28;20029;-48
2021/11/14 12:25:05;;;;;;;23.55;19.25;;;19.20;84.30;;;;;;5052644;28;20111;-48
2021/11/14 12:27:37;;;;;;;25.70;18.65;;;19.30;84.50;;;;;;5052789;28;20441;-48
2021/11/14 12:30:07;;;;;;;25.80;19.23;;;19.10;85.90;;;;;;5052718;28;20079;-48
2021/11/14 12:32:45;;;;;;;24.10;19.05;;;18.90;85.30;;;;;;5001173;28;20409;-47
2021/11/14 12:35:22;;;;;;;26.42;19.63;;;19.20;85.30;;;;;;5017233;28;20056;-48
2021/11/14 12:37:52;;;;;;;25.50;21.42;;;19.40;86.10;;;;;;5052783;28;20039;-47